Time;durP1;ratioP1;P1;durP2;ratioP2;P2;SDS_P1;SDS_P2;PMS_P1;PMS_P2;Temp;Humidity;BMP_temperature;BMP_pressure;BME280_temperature;BME280_humidity;BME280_pressure;Samples;Min_cycle;Max_cycle;Signal;HPM_P1;HPM_P2
2022/07/01 18:27:18;;;;;;;17.50;7.22;;;;;;;32.67;38.85;98270.31;4516538;31;115374;-82
2022/07/01 18:29:47;;;;;;;15.73;7.10;;;;;;;32.67;38.85;98270.31;4484698;32;20123;-84
2022/07/01 18:32:14;;;;;;;16.00;7.55;;;;;;;32.82;37.90;98267.91;4498312;32;20108;-83
2022/07/01 18:34:48;;;;;;;21.35;8.50;;;;;;;33.28;34.86;98268.84;4498835;31;20096;-82
2022/07/01 18:37:15;;;;;;;13.62;5.95;;;;;;;33.54;34.69;98279.44;4484791;32;20104;-86
2022/07/01 18:39:40;;;;;;;13.93;5.97;;;;;;;33.74;33.41;98287.19;4484607;32;20147;-87
2022/07/01 18:42:06;;;;;;;14.95;6.53;;;;;;;33.78;32.10;98288.34;4498882;31;20114;-84
2022/07/01 18:44:31;;;;;;;13.65;5.72;;;;;;;34.00;31.84;98291.19;4498717;31;20120;-85
2022/07/01 18:46:57;;;;;;;15.70;6.28;;;;;;;33.91;30.80;98296.22;4498696;32;20368;-83
2022/07/01 18:49:22;;;;;;;15.00;5.60;;;;;;;34.07;31.51;98292.69;4484761;32;20167;-84
2022/07/01 18:51:48;;;;;;;12.57;5.68;;;;;;;33.95;30.78;98293.81;4484662;32;20080;-85
2022/07/01 18:54:13;;;;;;;15.30;5.30;;;;;;;34.14;30.55;98288.94;4498925;31;20375;-84
2022/07/01 18:56:38;;;;;;;12.63;6.05;;;;;;;34.17;30.88;98304.88;4499027;32;20111;-83
2022/07/01 18:59:04;;;;;;;18.45;5.97;;;;;;;34.15;30.81;98310.59;4484692;32;20105;-87
2022/07/01 19:01:29;;;;;;;19.08;5.53;;;;;;;34.13;30.48;98312.69;4484424;32;20080;-87
2022/07/01 19:03:55;;;;;;;14.25;5.72;;;;;;;34.16;30.65;98317.72;4498530;32;20452;-84
2022/07/01 19:06:20;;;;;;;15.68;5.57;;;;;;;34.18;31.02;98328.41;4498615;31;20157;-87
2022/07/01 19:08:45;;;;;;;14.63;5.25;;;;;;;34.13;30.49;98328.28;4498782;31;20100;-86
2022/07/01 19:11:11;;;;;;;13.65;4.78;;;;;;;34.09;30.55;98338.87;4485666;31;20060;-87
2022/07/01 19:13:36;;;;;;;14.70;5.28;;;;;;;34.00;30.73;98333.00;4507323;31;20439;-86
2022/07/01 19:16:03;;;;;;;16.60;5.40;;;;;;;33.98;30.58;98340.63;4514448;31;20124;-88
2022/07/01 19:18:29;;;;;;;13.70;5.47;;;;;;;34.02;30.68;98338.22;4514547;31;20092;-87
2022/07/01 19:20:54;;;;;;;18.90;5.47;;;;;;;33.90;30.70;98341.00;4514447;31;20453;-87
2022/07/01 19:23:20;;;;;;;64.70;9.98;;;;;;;34.01;30.53;98344.75;4514421;31;20415;-88
2022/07/01 19:25:46;;;;;;;16.40;5.65;;;;;;;33.95;30.41;98349.31;4499402;31;20479;-85
2022/07/01 19:28:11;;;;;;;17.85;5.50;;;;;;;33.97;30.42;98351.78;4514155;31;20110;-89
2022/07/01 19:30:37;;;;;;;19.90;5.70;;;;;;;33.96;30.57;98345.50;4502931;31;20099;-90
2022/07/01 19:33:02;;;;;;;23.80;5.85;;;;;;;33.93;29.92;98350.62;4503685;31;20110;-89
2022/07/01 19:35:28;;;;;;;14.02;4.62;;;;;;;33.93;30.12;98362.37;4495617;31;20135;-89
2022/07/01 19:37:57;;;;;;;13.20;4.70;;;;;;;34.00;29.85;98357.59;4506499;31;20095;-90
2022/07/01 19:40:26;;;;;;;16.48;5.37;;;;;;;33.90;29.66;98365.59;4489143;31;20092;-89
2022/07/01 19:42:52;;;;;;;18.08;5.15;;;;;;;33.87;29.47;98366.94;4497650;31;20993;-88
2022/07/01 19:45:17;;;;;;;16.10;5.22;;;;;;;33.93;29.26;98372.50;4491410;31;20188;-86
2022/07/01 19:47:43;;;;;;;18.90;5.43;;;;;;;33.76;29.41;98369.72;4479416;32;20088;-87
2022/07/01 19:50:08;;;;;;;15.07;5.18;;;;;;;33.82;29.32;98375.06;4495997;31;20144;-85
2022/07/01 19:52:34;;;;;;;14.25;5.30;;;;;;;33.89;29.09;98372.97;4503751;31;20356;-86
2022/07/01 19:54:59;;;;;;;17.73;4.90;;;;;;;33.87;29.17;98377.84;4503790;31;20126;-89
2022/07/01 19:57:25;;;;;;;14.27;5.03;;;;;;;33.82;29.07;98383.25;4503936;31;20106;-90
2022/07/01 19:59:50;;;;;;;14.18;5.20;;;;;;;33.78;28.92;98384.78;4503736;31;20108;-89
2022/07/01 20:02:16;;;;;;;12.65;4.32;;;;;;;33.91;29.03;98386.41;4496631;31;20111;-88
2022/07/01 20:04:43;;;;;;;21.02;5.32;;;;;;;33.93;28.66;98388.88;4495696;31;20419;-92
2022/07/01 20:07:09;;;;;;;18.30;4.70;;;;;;;33.85;28.65;98398.31;4494898;31;20110;-88
2022/07/01 20:09:35;;;;;;;15.45;4.75;;;;;;;33.84;28.53;98397.50;4488415;31;20089;-88
2022/07/01 20:12:00;;;;;;;25.25;4.85;;;;;;;33.84;28.55;98396.62;4473185;32;20356;-85
2022/07/01 20:14:26;;;;;;;38.53;6.87;;;;;;;33.73;28.40;98400.25;4487681;31;20152;-84
2022/07/01 20:16:51;;;;;;;52.88;7.87;;;;;;;33.14;30.18;98424.94;4487681;31;20126;-87
2022/07/01 20:19:16;;;;;;;25.75;6.45;;;;;;;32.44;33.12;98453.78;4487874;31;20123;-88
2022/07/01 20:21:42;;;;;;;22.95;5.25;;;;;;;32.40;33.70;98474.41;4487773;31;20143;-87
2022/07/01 20:24:08;;;;;;;25.98;5.65;;;;;;;31.65;35.44;98479.16;4487745;31;20398;-81
2022/07/01 20:26:33;;;;;;;18.30;4.57;;;;;;;30.96;36.96;98500.13;4499105;31;20118;-84
2022/07/01 20:28:59;;;;;;;16.20;4.50;;;;;;;30.65;37.64;98509.97;4503437;31;20148;-82
2022/07/01 20:31:24;;;;;;;20.70;4.40;;;;;;;30.14;38.68;98521.75;4503454;31;20110;-82
2022/07/01 20:33:50;;;;;;;24.17;4.30;;;;;;;29.78;39.60;98515.00;4503412;31;20108;-83
2022/07/01 20:36:16;;;;;;;18.65;3.80;;;;;;;29.00;41.83;98503.00;4503080;31;20096;-84
2022/07/01 20:38:41;;;;;;;20.48;3.72;;;;;;;29.02;42.34;98511.75;4503107;31;20368;-80
2022/07/01 20:41:06;;;;;;;62.83;6.97;;;;;;;28.17;43.81;98516.84;4481447;32;20131;-84
2022/07/01 20:43:32;;;;;;;20.90;4.55;;;;;;;27.97;44.26;98508.66;4487274;31;20128;-82
2022/07/01 20:45:57;;;;;;;14.23;3.53;;;;;;;27.99;44.09;98525.53;4485153;32;20113;-84
2022/07/01 20:48:23;;;;;;;16.02;3.58;;;;;;;27.86;44.41;98530.87;4472287;32;20097;-86
2022/07/01 20:50:48;;;;;;;17.00;3.30;;;;;;;27.52;45.16;98527.12;4470815;32;20093;-92
2022/07/01 20:53:14;;;;;;;19.23;3.62;;;;;;;27.60;45.04;98532.41;4487399;32;20349;-86
2022/07/01 20:55:40;;;;;;;16.50;3.33;;;;;;;27.33;45.70;98536.78;4487307;32;20349;-89
2022/07/01 20:58:06;;;;;;;28.35;4.50;;;;;;;27.32;45.93;98531.59;4487393;32;20118;-89
2022/07/01 21:00:31;;;;;;;15.35;3.75;;;;;;;26.95;46.98;98529.00;4487243;32;20092;-82
2022/07/01 21:02:56;;;;;;;12.77;3.30;;;;;;;26.93;47.12;98519.44;4472954;32;20116;-82
2022/07/01 21:05:22;;;;;;;37.47;5.20;;;;;;;26.86;47.42;98517.50;4487219;32;20111;-83
2022/07/01 21:07:48;;;;;;;17.48;3.47;;;;;;;26.61;48.26;98548.66;4472993;32;20444;-81
2022/07/01 21:10:14;;;;;;;21.52;3.50;;;;;;;26.49;48.68;98532.09;4487209;32;20077;-84
2022/07/01 21:12:40;;;;;;;21.12;3.62;;;;;;;26.34;49.23;98504.31;4472879;32;20136;-83
2022/07/01 21:15:06;;;;;;;13.70;4.05;;;;;;;26.18;49.71;98513.47;4472966;32;20364;-82
2022/07/01 21:17:32;;;;;;;17.33;4.05;;;;;;;26.07;50.17;98502.13;4459993;32;20512;-83
2022/07/01 21:19:57;;;;;;;13.75;4.00;;;;;;;26.02;50.44;98490.22;4473054;32;20110;-84
2022/07/01 21:22:22;;;;;;;13.85;4.18;;;;;;;26.11;50.30;98488.25;4494129;31;20112;-84
2022/07/01 21:24:48;;;;;;;17.27;4.20;;;;;;;26.17;50.07;98488.31;4502948;31;20095;-90
2022/07/01 21:27:13;;;;;;;11.30;3.92;;;;;;;26.07;50.36;98493.22;4502855;31;20435;-90
2022/07/01 21:29:39;;;;;;;14.43;4.65;;;;;;;26.20;49.92;98503.31;4488593;31;20439;-89
2022/07/01 21:32:08;;;;;;;14.57;5.37;;;;;;;26.29;49.81;98504.88;4502835;31;20139;-91
2022/07/01 21:34:34;;;;;;;15.02;5.15;;;;;;;25.83;51.09;98494.38;4488874;31;20103;-88
2022/07/01 21:37:00;;;;;;;12.73;4.15;;;;;;;25.84;51.14;98499.53;4502891;31;20122;-87
2022/07/01 21:39:26;;;;;;;13.45;5.07;;;;;;;25.66;51.62;98510.75;4502839;31;20077;-88
2022/07/01 21:41:52;;;;;;;12.95;5.15;;;;;;;25.70;51.35;98513.91;4488416;31;20167;-89
2022/07/01 21:44:18;;;;;;;13.25;4.90;;;;;;;25.54;51.71;98508.72;4502849;31;20118;-89
2022/07/01 21:46:45;;;;;;;12.43;5.28;;;;;;;25.64;51.43;98526.28;4488127;31;20156;-90
2022/07/01 21:49:11;;;;;;;20.20;5.20;;;;;;;25.33;52.43;98521.06;4502861;31;20141;-91
2022/07/01 21:51:38;;;;;;;15.85;5.60;;;;;;;25.61;51.64;98518.59;4488510;31;20459;-89
2022/07/01 21:54:04;;;;;;;15.00;5.40;;;;;;;25.64;51.44;98538.94;4502723;31;20100;-91
2022/07/01 21:56:30;;;;;;;13.73;5.45;;;;;;;25.38;52.05;98518.66;4488366;31;20092;-90
2022/07/01 21:58:56;;;;;;;12.98;5.22;;;;;;;25.60;51.36;98541.16;4488264;31;20126;-90
2022/07/01 22:01:21;;;;;;;12.82;5.22;;;;;;;25.30;51.65;98522.28;4487929;31;20456;-90
2022/07/01 22:03:47;;;;;;;19.05;5.25;;;;;;;25.37;51.53;98530.47;4488294;31;20096;-89
2022/07/01 22:08:46;;;;;;;16.50;5.35;;;;;;;25.34;51.75;98508.41;4502570;31;20131;-90
2022/07/01 22:11:20;;;;;;;12.40;5.32;;;;;;;25.22;52.03;98514.25;4502510;31;20119;-91
2022/07/01 22:13:58;;;;;;;12.52;5.55;;;;;;;25.29;51.74;98499.03;4502657;31;20114;-91
2022/07/01 22:16:25;;;;;;;15.70;5.68;;;;;;;25.25;51.80;98507.69;4488231;31;20404;-91
2022/07/01 22:18:53;;;;;;;11.67;5.57;;;;;;;25.31;51.79;98518.56;4502412;31;20079;-90
2022/07/01 22:21:22;;;;;;;16.25;6.37;;;;;;;25.31;51.89;98523.94;4488330;31;20198;-92
2022/07/01 22:23:48;;;;;;;17.30;5.55;;;;;;;25.38;51.73;98520.50;4502376;31;20096;-91
2022/07/01 22:26:14;;;;;;;18.70;5.68;;;;;;;25.31;51.82;98526.66;4502301;31;20110;-87
2022/07/01 22:28:40;;;;;;;43.35;7.75;;;;;;;25.44;51.34;98517.91;4487904;31;20124;-88
2022/07/01 22:31:08;;;;;;;33.47;5.95;;;;;;;25.21;51.93;98504.50;4502247;31;20103;-88
2022/07/01 22:33:34;;;;;;;16.83;5.30;;;;;;;25.25;51.84;98526.56;4487887;31;20607;-89
2022/07/01 22:36:00;;;;;;;15.68;5.18;;;;;;;25.47;51.23;98536.41;4502095;31;20609;-88
2022/07/01 22:38:27;;;;;;;14.27;5.43;;;;;;;25.34;51.32;98541.59;4487779;31;20096;-88
2022/07/01 22:40:53;;;;;;;14.65;4.70;;;;;;;25.12;51.64;98544.16;4502077;31;20470;-88
2022/07/01 22:43:20;;;;;;;15.00;5.95;;;;;;;24.99;51.67;98564.66;4502192;31;20096;-87
2022/07/01 22:45:51;;;;;;;11.23;4.70;;;;;;;25.04;51.48;98546.94;4487469;31;20114;-91
2022/07/01 22:48:41;;;;;;;38.75;7.20;;;;;;;25.22;50.69;98575.41;4487610;31;20438;-89
2022/07/01 22:51:15;;;;;;;17.08;5.20;;;;;;;24.84;50.96;98589.72;4424309;32;20101;-90
2022/07/01 22:53:43;;;;;;;12.43;4.87;;;;;;;24.99;50.16;98570.06;4424280;32;20113;-88
2022/07/01 22:56:19;;;;;;;13.85;4.72;;;;;;;25.18;50.05;98574.94;4437118;32;20480;-90
2022/07/01 22:59:03;;;;;;;14.60;5.55;;;;;;;25.23;50.66;98590.63;4437036;32;20527;-89
2022/07/01 23:01:36;;;;;;;14.10;5.28;;;;;;;25.02;51.51;98597.50;4437079;32;20130;-89
2022/07/01 23:04:02;;;;;;;11.20;5.00;;;;;;;25.24;51.10;98628.16;4424634;32;20139;-89
2022/07/01 23:06:48;;;;;;;13.23;4.65;;;;;;;25.33;50.98;98611.94;4436983;32;20097;-90
2022/07/01 23:09:21;;;;;;;12.27;5.18;;;;;;;25.25;50.84;98618.22;4415667;32;20080;-89
2022/07/01 23:11:53;;;;;;;13.88;5.10;;;;;;;25.12;51.04;98629.59;4437082;32;20153;-88
2022/07/01 23:17:10;;;;;;;13.23;4.43;;;;;;;25.05;51.13;98645.66;4428265;32;20120;-90
2022/07/01 23:19:36;;;;;;;11.57;4.50;;;;;;;25.00;51.17;98674.16;4426142;32;20690;-90
2022/07/01 23:22:03;;;;;;;26.27;5.75;;;;;;;24.57;52.38;98661.13;4439014;32;20461;-88
2022/07/01 23:24:28;;;;;;;13.25;4.87;;;;;;;24.63;51.71;98676.56;4426062;32;20152;-89
2022/07/01 23:26:56;;;;;;;11.73;4.93;;;;;;;24.95;50.76;98660.37;4438771;32;20136;-89
2022/07/01 23:29:22;;;;;;;12.57;4.40;;;;;;;24.73;51.30;98663.69;4487519;31;20156;-88
2022/07/01 23:31:49;;;;;;;11.35;4.50;;;;;;;24.72;51.37;98666.56;4503734;31;20093;-89
2022/07/01 23:34:15;;;;;;;12.27;4.57;;;;;;;24.64;51.34;98666.63;4489325;31;20165;-91
2022/07/01 23:36:40;;;;;;;10.45;4.37;;;;;;;24.85;50.72;98671.38;4476032;31;20092;-89
2022/07/01 23:39:06;;;;;;;10.35;4.03;;;;;;;24.71;50.91;98675.69;4503621;31;20131;-90
2022/07/01 23:41:31;;;;;;;9.10;3.75;;;;;;;24.62;51.30;98676.72;4489331;31;20132;-89
2022/07/01 23:43:57;;;;;;;10.13;4.07;;;;;;;24.79;50.73;98690.97;4503646;31;20135;-91
2022/07/01 23:46:23;;;;;;;10.75;4.10;;;;;;;24.84;50.31;98693.94;4503576;31;20124;-90
2022/07/01 23:48:48;;;;;;;13.13;4.30;;;;;;;24.70;50.41;98690.16;4489146;31;20105;-90
2022/07/01 23:51:14;;;;;;;13.07;4.20;;;;;;;24.78;50.35;98698.19;4503697;31;20104;-91
2022/07/01 23:53:39;;;;;;;12.30;4.20;;;;;;;24.67;50.21;98706.69;4503453;31;20371;-90
2022/07/01 23:56:05;;;;;;;24.25;4.12;;;;;;;24.85;49.94;98693.78;4503351;31;20114;-90
2022/07/01 23:58:30;;;;;;;10.05;4.03;;;;;;;24.95;49.07;98698.94;4503469;31;20152;-91
